Time;durP1;ratioP1;P1;durP2;ratioP2;P2;SDS_P1;SDS_P2;PMS_P1;PMS_P2;Temp;Humidity;BMP_temperature;BMP_pressure;BME280_temperature;BME280_humidity;BME280_pressure;Samples;Min_cycle;Max_cycle;Signal;HPM_P1;HPM_P2
2021/11/12 00:04:21;;;;;;;46.53;26.67;;;;;;;3.23;100.00;101286.34;5068171;28;20346;-68
2021/11/12 00:14:24;;;;;;;47.60;27.60;;;;;;;3.20;100.00;101282.06;5111050;28;20020;-68
2021/11/12 00:16:50;;;;;;;51.17;28.23;;;;;;;3.17;100.00;101276.00;5110960;28;20035;-68
2021/11/12 00:19:15;;;;;;;55.38;28.80;;;;;;;3.23;100.00;101279.28;5110980;28;20024;-68
2021/11/12 00:21:43;;;;;;;50.08;29.42;;;;;;;3.15;100.00;101269.91;5110915;28;20031;-68
2021/11/12 00:24:08;;;;;;;61.20;30.25;;;;;;;3.14;100.00;101270.84;5110932;28;20034;-68
2021/11/12 00:26:35;;;;;;;49.53;27.48;;;;;;;3.21;100.00;101289.06;5110807;28;20032;-68
2021/11/12 00:29:01;;;;;;;42.95;27.02;;;;;;;3.18;100.00;101275.94;5110829;28;20027;-68
2021/11/12 00:31:36;;;;;;;44.05;25.95;;;;;;;3.10;100.00;101259.53;5110837;28;20042;-68
2021/11/12 00:34:32;;;;;;;37.50;24.63;;;;;;;3.19;100.00;101277.66;5109984;28;20391;-68
2021/11/12 00:37:44;;;;;;;39.00;24.98;;;;;;;3.14;100.00;101263.75;5110523;28;20764;-68
2021/11/12 00:39:47;;;;;;;41.33;25.70;;;;;;;3.17;100.00;101271.59;5104700;28;20046;-68
2021/11/12 00:42:16;;;;;;;40.00;24.45;;;;;;;3.17;100.00;101270.72;5110494;28;20030;-68
2021/11/12 00:44:47;;;;;;;41.28;27.00;;;;;;;3.16;100.00;101274.31;5110413;28;20138;-69
2021/11/12 00:49:48;;;;;;;38.28;24.65;;;;;;;3.09;100.00;101272.84;5110505;28;20034;-66
2021/11/12 00:52:17;;;;;;;37.75;24.65;;;;;;;3.07;100.00;101266.72;5110410;28;20030;-67
2021/11/12 00:54:43;;;;;;;38.03;24.65;;;;;;;3.08;100.00;101273.75;5110898;28;20039;-67
2021/11/12 00:57:11;;;;;;;43.60;27.45;;;;;;;3.10;100.00;101275.44;5108730;28;20118;-67
2021/11/12 00:59:37;;;;;;;40.63;26.52;;;;;;;2.99;100.00;101253.78;5111210;28;20023;-67
2021/11/12 01:02:02;;;;;;;44.83;26.23;;;;;;;3.10;100.00;101272.78;5111287;28;20058;-67
2021/11/12 01:04:28;;;;;;;43.33;26.75;;;;;;;3.09;100.00;101273.69;5109969;28;20039;-67
2021/11/12 01:06:53;;;;;;;45.92;26.20;;;;;;;3.07;100.00;101272.03;5111277;28;20031;-68
2021/11/12 01:09:21;;;;;;;43.33;26.30;;;;;;;3.04;100.00;101274.81;5111257;28;20027;-68
2021/11/12 01:11:48;;;;;;;44.15;27.23;;;;;;;3.05;100.00;101268.56;5109695;28;20110;-68
2021/11/12 01:14:25;;;;;;;43.28;27.63;;;;;;;3.03;100.00;101265.97;5111043;28;20376;-68
2021/11/12 01:16:51;;;;;;;44.15;26.58;;;;;;;2.97;100.00;101262.75;5109819;28;20031;-68
2021/11/12 01:19:16;;;;;;;42.53;26.30;;;;;;;3.05;100.00;101272.09;5110966;28;20020;-68
2021/11/12 01:21:42;;;;;;;41.20;27.15;;;;;;;3.01;100.00;101265.22;5110994;28;20037;-68
2021/11/12 01:24:08;;;;;;;44.78;26.92;;;;;;;3.05;100.00;101265.91;5110636;28;20479;-69
2021/11/12 01:26:35;;;;;;;45.38;27.10;;;;;;;3.03;100.00;101265.13;5110461;28;20047;-68
2021/11/12 01:29:01;;;;;;;45.58;27.30;;;;;;;3.04;100.00;101269.50;5110523;28;20027;-68
2021/11/12 01:31:30;;;;;;;41.45;27.50;;;;;;;3.02;100.00;101264.25;5110687;28;20032;-68
2021/11/12 01:34:07;;;;;;;42.80;27.58;;;;;;;3.02;100.00;101252.78;5110557;28;20480;-69
2021/11/12 01:36:37;;;;;;;46.95;28.83;;;;;;;3.05;100.00;101265.91;5107977;28;20076;-68
2021/11/12 01:39:09;;;;;;;45.80;27.27;;;;;;;3.03;100.00;101265.97;5110346;28;20391;-68
2021/11/12 01:41:39;;;;;;;49.53;28.38;;;;;;;3.01;100.00;101259.03;5110786;28;20027;-68
2021/11/12 01:44:08;;;;;;;47.17;28.80;;;;;;;3.00;100.00;101260.81;5109218;28;20028;-68
2021/11/12 01:46:47;;;;;;;49.05;29.13;;;;;;;3.01;100.00;101259.03;5114683;28;20460;-68
2021/11/12 01:59:47;;;;;;;47.78;28.77;;;;;;;2.95;100.00;101230.13;5092340;28;20046;-69
2021/11/12 02:02:12;;;;;;;51.00;28.13;;;;;;;2.36;100.00;101135.50;5113189;28;20023;-68
2021/11/12 02:04:38;;;;;;;47.58;29.20;;;;;;;3.04;100.00;101240.34;5114674;28;20027;-68
2021/11/12 02:07:04;;;;;;;52.13;29.42;;;;;;;3.05;100.00;101242.06;5114726;28;20023;-68
2021/11/12 02:09:30;;;;;;;50.72;29.30;;;;;;;2.96;100.00;101226.59;5114603;28;20096;-68
2021/11/12 02:12:18;;;;;;;52.85;29.23;;;;;;;3.02;100.00;101237.78;5114595;28;20038;-68
2021/11/12 02:14:46;;;;;;;45.97;27.02;;;;;;;2.92;100.00;101224.97;5113167;28;20085;-68
2021/11/12 02:17:14;;;;;;;49.97;28.58;;;;;;;2.95;100.00;101223.06;5114293;28;20028;-69
2021/11/12 02:19:48;;;;;;;52.15;28.25;;;;;;;2.94;100.00;101226.66;5114279;28;20084;-69
2021/11/12 02:22:15;;;;;;;47.00;28.30;;;;;;;2.91;100.00;101228.56;5112807;28;20452;-68
2021/11/12 02:25:06;;;;;;;46.85;28.60;;;;;;;2.87;100.00;101227.81;5112607;28;20051;-68
2021/11/12 02:27:39;;;;;;;52.90;27.52;;;;;;;2.90;100.00;101237.44;5114059;27;20020;-67
2021/11/12 02:30:05;;;;;;;50.15;29.33;;;;;;;2.89;100.00;101235.69;5110154;28;20027;-67
2021/11/12 02:32:31;;;;;;;49.35;27.83;;;;;;;2.87;100.00;101233.09;5114170;28;20029;-69
2021/11/12 02:35:02;;;;;;;51.20;28.42;;;;;;;2.78;100.00;101216.75;5114581;28;20034;-68
2021/11/12 02:37:31;;;;;;;52.05;30.35;;;;;;;2.80;100.00;101221.03;5112700;28;20035;-68
2021/11/12 02:39:57;;;;;;;45.83;28.77;;;;;;;2.83;100.00;101226.22;5112768;28;20031;-68
2021/11/12 02:42:23;;;;;;;47.63;28.80;;;;;;;2.80;100.00;101222.84;5113807;28;20367;-68
2021/11/12 02:44:49;;;;;;;49.05;28.98;;;;;;;2.74;100.00;101221.28;5112536;28;20035;-68
2021/11/12 02:47:17;;;;;;;50.15;29.80;;;;;;;2.81;100.00;101230.75;5113851;28;20411;-67
2021/11/12 02:49:43;;;;;;;50.65;29.48;;;;;;;2.82;100.00;101227.16;5113566;27;20114;-68
2021/11/12 02:52:10;;;;;;;47.88;27.63;;;;;;;2.76;100.00;101210.63;5113776;28;20030;-68
2021/11/12 02:54:38;;;;;;;51.10;30.15;;;;;;;2.81;100.00;101227.22;5113837;28;20028;-69
2021/11/12 02:57:04;;;;;;;51.75;30.13;;;;;;;2.81;100.00;101227.22;5112596;28;20472;-68
2021/11/12 02:59:30;;;;;;;45.80;28.15;;;;;;;2.80;100.00;101222.84;5112289;28;20389;-69
2021/11/12 03:02:02;;;;;;;49.92;29.33;;;;;;;2.78;100.00;101225.56;5112198;28;20031;-69
2021/11/12 03:04:28;;;;;;;49.85;28.60;;;;;;;2.68;100.00;101208.34;5113235;27;20055;-68
2021/11/12 03:06:55;;;;;;;48.58;28.80;;;;;;;2.77;100.00;101225.63;5113310;28;20101;-69
2021/11/12 03:09:28;;;;;;;43.83;28.73;;;;;;;2.76;100.00;101224.75;5113304;28;20023;-68
2021/11/12 03:11:54;;;;;;;53.25;29.08;;;;;;;2.74;100.00;101218.66;5113242;28;20115;-68
2021/11/12 03:14:21;;;;;;;45.38;27.88;;;;;;;2.65;100.00;101195.22;5113185;28;20080;-68
2021/11/12 03:16:47;;;;;;;47.15;28.38;;;;;;;2.77;100.00;101220.34;5113053;27;20034;-68
2021/11/12 03:19:13;;;;;;;50.17;28.67;;;;;;;2.74;100.00;101213.34;5111769;28;20019;-68
2021/11/12 03:21:41;;;;;;;47.33;28.27;;;;;;;2.75;100.00;101212.44;5113122;28;20076;-68
2021/11/12 03:24:27;;;;;;;45.30;27.98;;;;;;;2.78;100.00;101216.75;5112682;28;20043;-68
2021/11/12 03:27:18;;;;;;;46.33;27.45;;;;;;;2.79;100.00;101221.97;5112384;28;20530;-68
2021/11/12 05:10:07;;;;;;;44.75;28.38;;;;;;;1.74;100.00;101186.56;5109894;28;20124;-68
2021/11/12 05:50:33;;;;;;;47.72;29.45;;;;;;;1.51;100.00;101189.19;5086114;28;20053;-69
2021/11/12 05:55:42;;;;;;;47.15;28.70;;;;;;;1.55;100.00;101206.69;5109605;28;20138;-68
2021/11/12 05:58:08;;;;;;;42.00;27.40;;;;;;;1.55;100.00;101201.41;5110836;28;20107;-68
2021/11/12 06:00:33;;;;;;;48.13;30.35;;;;;;;0.88;100.00;101097.31;5110577;28;20027;-68
2021/11/12 06:02:59;;;;;;;45.80;29.73;;;;;;;1.50;100.00;101200.69;5110597;28;20367;-68
2021/11/12 06:05:25;;;;;;;50.25;29.17;;;;;;;1.55;100.00;101214.63;5109361;28;20529;-68
2021/11/12 06:07:52;;;;;;;44.47;27.73;;;;;;;1.50;100.00;101205.97;5110502;28;20068;-69
2021/11/12 06:10:18;;;;;;;48.35;28.98;;;;;;;1.51;100.00;101207.69;5109260;28;20356;-68
2021/11/12 06:12:44;;;;;;;46.47;29.15;;;;;;;1.49;100.00;101205.09;5110647;28;20036;-68
2021/11/12 06:15:10;;;;;;;43.88;28.27;;;;;;;1.56;100.00;101219.84;5110593;28;20567;-69
2021/11/12 06:17:36;;;;;;;44.17;28.02;;;;;;;1.60;100.00;101226.75;5110364;28;20114;-69
2021/11/12 06:20:02;;;;;;;41.53;26.90;;;;;;;1.50;100.00;101206.84;5110334;28;20058;-69
2021/11/12 06:22:29;;;;;;;48.80;27.27;;;;;;;1.53;100.00;101213.78;5110644;28;20024;-68
2021/11/12 06:24:55;;;;;;;43.65;26.70;;;;;;;1.61;100.00;101231.09;5104975;28;20093;-69
2021/11/12 06:27:20;;;;;;;42.97;27.58;;;;;;;1.66;100.00;101225.63;5107897;28;20102;-69
2021/11/12 06:29:46;;;;;;;43.25;28.83;;;;;;;1.61;100.00;101212.59;5108390;28;20035;-69
2021/11/12 06:32:12;;;;;;;47.60;29.42;;;;;;;1.51;100.00;101197.13;5109655;28;20035;-69
2021/11/12 06:34:37;;;;;;;49.95;30.60;;;;;;;1.69;100.00;101229.03;5113211;28;20072;-70
2021/11/12 06:37:03;;;;;;;48.75;29.75;;;;;;;1.71;100.00;101226.34;5113243;28;20016;-70
2021/11/12 06:39:30;;;;;;;63.05;34.25;;;;;;;1.76;100.00;101222.59;5113416;28;20197;-70
2021/11/12 06:41:58;;;;;;;63.97;36.92;;;;;;;1.71;100.00;101219.25;5113221;28;20126;-69
2021/11/12 06:44:40;;;;;;;66.10;39.10;;;;;;;1.81;100.00;101220.63;5111258;28;20027;-68
2021/11/12 06:52:16;;;;;;;64.68;37.63;;;;;;;1.91;100.00;101214.06;5114082;28;20379;-68
2021/11/12 06:54:44;;;;;;;68.47;40.15;;;;;;;1.99;100.00;101217.31;5113707;27;20030;-68
2021/11/12 06:57:09;;;;;;;68.25;40.13;;;;;;;1.96;100.00;101204.19;5113532;28;20035;-68
2021/11/12 06:59:35;;;;;;;67.13;40.25;;;;;;;1.97;100.00;101187.38;5113686;28;20026;-67
2021/11/12 07:02:00;;;;;;;70.43;40.05;;;;;;;2.14;100.00;101215.84;5113888;28;20034;-68
2021/11/12 07:04:26;;;;;;;65.53;40.13;;;;;;;2.24;100.00;101222.50;5112164;28;20028;-68
2021/11/12 07:06:51;;;;;;;67.80;40.22;;;;;;;2.24;100.00;101215.44;5113538;28;20085;-69
2021/11/12 07:09:17;;;;;;;70.35;41.22;;;;;;;2.29;100.00;101210.78;5111140;28;20099;-69
2021/11/12 07:11:42;;;;;;;71.57;42.72;;;;;;;2.21;100.00;101182.91;5111892;28;20039;-69
2021/11/12 07:14:08;;;;;;;71.57;42.00;;;;;;;2.48;100.00;101215.38;5112556;28;20035;-68
2021/11/12 07:16:34;;;;;;;73.20;43.42;;;;;;;2.46;100.00;101202.19;5112439;28;20019;-68
2021/11/12 07:19:00;;;;;;;74.82;45.88;;;;;;;2.59;100.00;101215.78;5112697;28;20023;-68
2021/11/12 07:21:27;;;;;;;71.28;43.47;;;;;;;2.70;100.00;101218.88;5112691;28;20039;-68
2021/11/12 07:23:54;;;;;;;66.10;42.42;;;;;;;2.73;100.00;101224.00;5112581;28;20564;-68
2021/11/12 07:26:20;;;;;;;76.18;44.63;;;;;;;2.86;100.00;101233.16;5112134;28;20051;-68
2021/11/12 07:28:48;;;;;;;72.63;41.28;;;;;;;2.92;100.00;101223.19;5112937;28;20495;-68
2021/11/12 07:31:16;;;;;;;72.32;42.35;;;;;;;2.99;100.00;101226.44;5112056;28;20031;-69
2021/11/12 07:33:42;;;;;;;71.55;42.00;;;;;;;3.12;100.00;101227.63;5112552;27;20476;-69
2021/11/12 07:36:16;;;;;;;68.40;41.92;;;;;;;3.18;100.00;101222.06;5111480;28;20042;-69
2021/11/12 07:49:02;;;;;;;72.90;41.42;;;;;;;3.64;100.00;101219.97;5112861;28;20042;-68
2021/11/12 07:51:28;;;;;;;74.07;41.38;;;;;;;3.76;100.00;101223.84;5112602;28;20062;-68
2021/11/12 07:53:54;;;;;;;73.60;44.80;;;;;;;3.81;100.00;101213.91;5112080;28;20050;-68
2021/11/12 07:56:21;;;;;;;72.45;41.30;;;;;;;3.90;100.00;101217.00;5112738;28;20031;-69
2021/11/12 07:58:46;;;;;;;63.80;40.80;;;;;;;3.95;100.00;101217.66;5111347;28;20032;-67
2021/11/12 08:01:11;;;;;;;70.95;41.88;;;;;;;3.98;100.00;101213.97;5112515;28;20372;-68
2021/11/12 08:03:37;;;;;;;69.38;43.58;;;;;;;4.03;100.00;101207.53;5112430;28;20085;-68
2021/11/12 08:06:05;;;;;;;69.95;43.40;;;;;;;4.08;100.00;101205.53;5112430;28;20092;-68
2021/11/12 08:08:35;;;;;;;72.43;43.50;;;;;;;4.19;100.00;101205.00;5112472;27;20488;-68
2021/11/12 08:11:05;;;;;;;69.72;43.63;;;;;;;4.28;100.00;101209.88;5112350;28;20020;-67
2021/11/12 08:16:18;;;;;;;74.30;44.58;;;;;;;4.46;100.00;101214.31;5112458;28;20110;-69
2021/11/12 08:23:48;;;;;;;75.28;46.05;;;;;;;4.63;100.00;101219.66;5112092;28;20559;-68
2021/11/12 08:26:30;;;;;;;80.53;48.20;;;;;;;4.62;100.00;101216.13;5111947;28;20065;-68
2021/11/12 08:39:06;;;;;;;84.45;51.85;;;;;;;5.02;100.00;101215.00;5109359;28;20224;-68
2021/11/12 08:41:46;;;;;;;73.97;47.65;;;;;;;5.09;100.00;101221.72;5111828;28;20046;-69
2021/11/12 08:44:20;;;;;;;71.00;45.95;;;;;;;5.14;100.00;101211.72;5111542;28;20055;-67
2021/11/12 08:46:54;;;;;;;70.68;46.63;;;;;;;5.25;100.00;101220.00;5111211;28;20039;-68
2021/11/12 08:49:28;;;;;;;79.20;48.25;;;;;;;5.32;100.00;101218.72;5111664;28;20032;-68
2021/11/12 08:51:54;;;;;;;72.50;46.95;;;;;;;5.32;100.00;101205.44;5108068;28;20020;-68
2021/11/12 08:54:24;;;;;;;75.30;48.83;;;;;;;5.41;100.00;101214.72;5109828;28;20034;-68
2021/11/12 08:56:51;;;;;;;74.60;46.63;;;;;;;5.48;100.00;101214.34;5110352;28;20024;-68
2021/11/12 08:59:16;;;;;;;78.63;47.95;;;;;;;5.58;100.00;101220.88;5108973;28;20080;-68
2021/11/12 09:01:42;;;;;;;77.55;45.63;;;;;;;5.67;100.00;101223.06;5110317;28;20039;-68
2021/11/12 09:04:08;;;;;;;72.03;46.75;;;;;;;5.72;100.00;101207.72;5108676;28;20024;-68
2021/11/12 09:06:34;;;;;;;80.40;48.28;;;;;;;5.74;100.00;101208.47;5110131;28;20459;-68
2021/11/12 09:08:59;;;;;;;78.20;47.20;;;;;;;5.75;100.00;101185.41;5109917;28;20055;-67
2021/11/12 09:11:25;;;;;;;75.78;45.83;;;;;;;5.89;100.00;101209.50;5111147;28;20055;-67
2021/11/12 09:13:54;;;;;;;78.70;47.42;;;;;;;5.93;100.00;101205.75;5107620;28;20127;-68
2021/11/12 09:16:29;;;;;;;78.57;47.95;;;;;;;6.04;100.00;101201.56;5109834;28;20059;-69
2021/11/12 09:18:54;;;;;;;73.18;44.22;;;;;;;6.06;100.00;101199.63;5111345;28;20103;-69
2021/11/12 09:21:20;;;;;;;69.90;43.50;;;;;;;6.17;100.00;101202.59;5110157;28;20119;-68
2021/11/12 09:23:45;;;;;;;65.03;42.53;;;;;;;6.16;100.00;101186.69;5110839;28;20032;-68
2021/11/12 09:26:14;;;;;;;73.55;43.40;;;;;;;6.35;100.00;101201.53;5110578;28;20051;-68
2021/11/12 09:28:40;;;;;;;66.07;41.13;;;;;;;6.25;100.00;101172.81;5110820;28;20491;-68
2021/11/12 09:31:08;;;;;;;67.78;43.03;;;;;;;6.47;100.00;101202.66;5110755;28;20027;-69
2021/11/12 09:33:34;;;;;;;64.63;41.35;;;;;;;6.51;100.00;101190.84;5110722;28;20521;-68
2021/11/12 09:36:01;;;;;;;64.40;41.58;;;;;;;6.62;100.00;101199.94;5110526;28;20035;-69
2021/11/12 09:38:27;;;;;;;65.32;43.33;;;;;;;6.70;100.00;101195.06;5110845;28;20111;-69
2021/11/12 09:40:54;;;;;;;67.53;42.33;;;;;;;6.67;100.00;101179.22;5110916;28;20038;-69
2021/11/12 09:43:23;;;;;;;63.58;40.90;;;;;;;6.87;100.00;101196.75;5109515;28;20048;-68
2021/11/12 09:45:49;;;;;;;59.78;39.38;;;;;;;6.91;100.00;101191.13;5109122;28;20031;-69
2021/11/12 09:48:14;;;;;;;61.53;41.03;;;;;;;7.00;100.00;101193.25;5109211;28;20482;-69
2021/11/12 09:50:40;;;;;;;65.25;39.75;;;;;;;7.05;100.00;101176.97;5108985;28;20027;-69
2021/11/12 09:53:06;;;;;;;65.05;40.63;;;;;;;7.18;100.00;101191.28;5109226;28;20056;-68
2021/11/12 09:55:32;;;;;;;61.03;39.78;;;;;;;7.24;100.00;101187.41;5109242;28;20063;-69
2021/11/12 09:58:00;;;;;;;61.85;39.10;;;;;;;7.32;100.00;101182.47;5110545;28;20725;-68
2021/11/12 10:00:27;;;;;;;61.28;41.03;;;;;;;7.36;100.00;101171.53;5109542;28;20460;-69
2021/11/12 10:02:54;;;;;;;61.83;40.13;;;;;;;7.48;100.00;101178.75;5110587;28;20023;-69
2021/11/12 10:05:31;;;;;;;55.40;37.53;;;;;;;7.51;100.00;101170.56;5110523;28;20039;-68
2021/11/12 10:07:59;;;;;;;57.40;37.75;;;;;;;7.61;100.00;101179.72;5114697;28;20051;-68
2021/11/12 10:10:24;;;;;;;52.33;35.53;;;;;;;7.67;100.00;101163.31;5115618;27;20074;-69
2021/11/12 10:12:51;;;;;;;56.88;37.15;;;;;;;7.69;100.00;101158.75;5114457;28;20047;-69
2021/11/12 10:15:19;;;;;;;54.03;37.00;;;;;;;7.76;100.00;101145.84;5114481;28;20035;-70
2021/11/12 10:17:47;;;;;;;56.78;36.10;;;;;;;7.84;100.00;101144.41;5114269;28;20028;-69
2021/11/12 10:20:16;;;;;;;52.78;34.45;;;;;;;7.89;99.66;101138.78;5114297;28;20038;-69
2021/11/12 10:22:45;;;;;;;54.63;35.78;;;;;;;7.93;99.19;101135.81;5114552;28;20632;-68
2021/11/12 10:25:12;;;;;;;54.40;34.88;;;;;;;8.03;99.54;101128.94;5114020;28;20460;-71
2021/11/12 10:27:41;;;;;;;54.08;36.30;;;;;;;8.11;98.96;101131.13;5114215;28;20092;-69
2021/11/12 10:30:16;;;;;;;58.70;38.15;;;;;;;8.16;98.37;101129.84;5113449;28;20024;-69
2021/11/12 10:32:43;;;;;;;53.97;35.53;;;;;;;8.16;97.88;101107.63;5113547;28;20039;-67
2021/11/12 10:35:23;;;;;;;49.83;34.15;;;;;;;8.26;97.94;101117.63;5113453;28;20035;-69
2021/11/12 10:37:49;;;;;;;52.08;34.90;;;;;;;8.38;97.04;101111.50;5113362;28;20146;-69
2021/11/12 10:40:18;;;;;;;56.35;36.65;;;;;;;8.45;96.35;101109.28;5112011;28;20028;-68
2021/11/12 10:42:50;;;;;;;55.22;37.25;;;;;;;8.49;95.38;101116.13;5113055;28;21489;-68
2021/11/12 10:45:23;;;;;;;58.08;39.03;;;;;;;8.50;94.79;101108.00;5113282;28;20042;-68
2021/11/12 10:47:52;;;;;;;52.17;36.40;;;;;;;8.60;93.77;101105.56;5113305;28;20056;-69
2021/11/12 10:50:20;;;;;;;52.67;36.30;;;;;;;8.60;92.94;101094.88;5113281;28;20096;-68
2021/11/12 10:52:48;;;;;;;50.92;34.90;;;;;;;8.68;92.19;101105.94;5113232;28;20027;-69
2021/11/12 10:55:20;;;;;;;60.72;39.28;;;;;;;8.67;91.93;101083.66;5110606;28;20020;-68
2021/11/12 10:57:52;;;;;;;58.33;37.58;;;;;;;8.65;92.11;101072.22;5111796;28;20080;-68
2021/11/12 11:00:22;;;;;;;58.22;36.40;;;;;;;8.79;91.27;101081.97;5113394;28;20023;-67
2021/11/12 11:02:58;;;;;;;55.65;36.97;;;;;;;8.84;90.91;101082.53;5110693;28;20039;-68
2021/11/12 11:05:50;;;;;;;52.83;36.85;;;;;;;8.85;90.88;101071.72;5113530;28;20102;-68
2021/11/12 11:08:21;;;;;;;56.33;36.10;;;;;;;8.91;90.97;101067.75;5104855;28;20043;-68
2021/11/12 11:11:00;;;;;;;58.83;38.42;;;;;;;8.95;91.55;101058.56;5114687;27;20117;-66
2021/11/12 11:13:29;;;;;;;50.90;34.65;;;;;;;9.01;91.88;101066.16;5111536;28;20034;-68
2021/11/12 11:16:03;;;;;;;55.10;33.97;;;;;;;9.04;90.63;101060.59;5112545;28;20118;-69
2021/11/12 11:18:31;;;;;;;53.83;35.13;;;;;;;9.00;89.52;101056.44;5110712;28;20020;-68
2021/11/12 11:23:46;;;;;;;49.05;31.35;;;;;;;9.18;88.91;101066.69;5112676;28;20050;-69
2021/11/12 11:26:39;;;;;;;46.25;31.98;;;;;;;9.24;88.47;101068.09;5111004;28;20517;-69
2021/11/12 11:29:07;;;;;;;44.40;31.90;;;;;;;9.28;87.66;101061.53;5112370;28;20031;-68
2021/11/12 11:31:34;;;;;;;45.92;30.67;;;;;;;9.32;86.74;101061.22;5112421;28;20035;-69
2021/11/12 11:34:01;;;;;;;46.42;29.88;;;;;;;9.35;85.78;101052.09;5112546;28;20015;-67
2021/11/12 11:36:31;;;;;;;43.03;29.65;;;;;;;9.26;84.60;101034.03;5111170;28;20388;-68
2021/11/12 11:39:00;;;;;;;42.33;29.58;;;;;;;9.43;84.15;101057.78;5112347;28;20467;-69
2021/11/12 11:41:26;;;;;;;40.35;27.05;;;;;;;9.48;83.42;101049.44;5112316;28;20387;-69
2021/11/12 11:43:52;;;;;;;38.35;27.25;;;;;;;9.51;83.30;101038.50;5111991;28;20038;-69
2021/11/12 11:46:23;;;;;;;43.67;28.90;;;;;;;9.54;82.57;101046.31;5112067;28;20032;-69
2021/11/12 11:48:50;;;;;;;42.83;27.83;;;;;;;9.56;82.04;101041.69;5112066;28;20038;-69
2021/11/12 11:51:31;;;;;;;37.30;25.83;;;;;;;9.58;81.42;101040.63;5112039;28;20536;-69
2021/11/12 11:54:03;;;;;;;41.20;26.35;;;;;;;9.48;80.56;101020.81;5110624;28;20065;-68
2021/11/12 11:56:33;;;;;;;37.45;26.15;;;;;;;9.52;80.06;101019.66;5112023;28;20046;-69
2021/11/12 11:59:19;;;;;;;37.67;25.00;;;;;;;9.69;79.41;101046.06;5111926;28;20027;-68
2021/11/12 12:01:46;;;;;;;35.85;24.17;;;;;;;9.71;78.45;101036.09;5111546;28;20080;-69
2021/11/12 12:04:14;;;;;;;38.10;25.05;;;;;;;9.77;78.48;101032.09;5111650;28;20027;-68
2021/11/12 12:07:00;;;;;;;40.42;25.55;;;;;;;9.73;77.66;101023.44;5110535;28;20035;-69
2021/11/12 12:10:10;;;;;;;33.97;23.75;;;;;;;9.81;78.56;101025.56;5112155;28;20032;-69
2021/11/12 12:12:39;;;;;;;38.53;24.77;;;;;;;9.85;78.99;101027.03;5048983;28;20501;-68
2021/11/12 12:15:04;;;;;;;33.63;24.13;;;;;;;9.89;78.70;101023.16;5032394;28;20029;-69
2021/11/12 12:17:32;;;;;;;40.60;25.48;;;;;;;9.90;78.53;101009.63;5071353;28;20038;-69
2021/11/12 13:25:25;;;;;;;33.78;23.05;;;;;;;10.42;72.51;100958.38;5110253;27;20058;-70
2021/11/12 13:28:04;;;;;;;30.73;21.67;;;;;;;10.38;72.79;100960.41;5110632;28;20098;-69
2021/11/12 13:30:29;;;;;;;34.83;23.05;;;;;;;10.47;72.72;100957.03;5110865;28;20024;-69
2021/11/12 13:32:55;;;;;;;31.65;22.02;;;;;;;10.47;72.84;100962.41;5109502;28;20085;-69
2021/11/12 13:35:34;;;;;;;35.67;23.67;;;;;;;10.53;73.12;100967.28;5110553;28;20028;-69
2021/11/12 13:38:01;;;;;;;38.58;26.40;;;;;;;10.47;73.15;100957.03;5108957;28;20365;-69
2021/11/12 13:40:32;;;;;;;39.97;24.98;;;;;;;10.47;72.71;100954.34;5110881;28;20099;-69
2021/11/12 13:42:58;;;;;;;36.15;23.73;;;;;;;10.54;72.97;100971.66;5115035;28;20487;-69
2021/11/12 13:45:27;;;;;;;29.65;21.80;;;;;;;10.51;73.06;100958.50;5115162;28;20023;-69
2021/11/12 13:48:00;;;;;;;31.38;22.50;;;;;;;10.60;72.62;100971.19;5113791;28;20479;-69
2021/11/12 13:50:26;;;;;;;35.70;23.25;;;;;;;10.62;73.14;100958.53;5114951;28;20490;-70
2021/11/12 13:52:51;;;;;;;33.55;24.15;;;;;;;10.54;72.48;100950.22;5113706;28;20032;-69
2021/11/12 13:55:17;;;;;;;34.60;24.45;;;;;;;10.62;72.94;100963.03;5115015;28;20041;-70
2021/11/12 13:57:56;;;;;;;36.20;23.77;;;;;;;10.44;72.91;100924.22;5114897;28;20035;-70
2021/11/12 14:00:26;;;;;;;34.00;23.67;;;;;;;10.67;73.51;100966.19;5112125;28;20023;-69
2021/11/12 14:03:04;;;;;;;35.50;23.63;;;;;;;10.68;73.53;100962.56;5114667;28;20085;-70
2021/11/12 14:05:30;;;;;;;32.55;24.02;;;;;;;10.62;73.86;100953.16;5114936;28;20475;-70
2021/11/12 14:08:15;;;;;;;32.88;23.88;;;;;;;10.65;74.11;100955.63;5114475;28;20495;-69
2021/11/12 14:10:44;;;;;;;33.30;24.60;;;;;;;10.59;74.08;100942.69;5115438;27;20023;-69
2021/11/12 14:13:12;;;;;;;35.78;25.13;;;;;;;10.59;73.83;100950.72;5114628;28;20020;-70
2021/11/12 14:15:59;;;;;;;37.00;24.30;;;;;;;10.65;74.33;100960.13;5112473;28;20024;-69
2021/11/12 14:21:45;;;;;;;34.10;23.58;;;;;;;10.64;74.37;100956.56;5114892;28;20027;-69
2021/11/12 14:24:03;;;;;;;33.03;22.60;;;;;;;10.62;73.42;100955.00;5107304;28;20050;-68
2021/11/12 14:27:14;;;;;;;30.88;21.08;;;;;;;10.51;72.62;100929.00;5112930;28;20047;-69
2021/11/12 14:35:47;;;;;;;31.25;22.05;;;;;;;10.58;72.57;100959.72;5112630;28;20027;-69
2021/11/12 14:37:59;;;;;;;31.45;21.83;;;;;;;10.55;72.92;100954.59;5103173;28;20104;-70
2021/11/12 14:45:40;;;;;;;31.33;21.55;;;;;;;10.41;74.51;100953.94;5114511;28;20032;-71
2021/11/12 14:55:52;;;;;;;30.77;22.23;;;;;;;10.17;74.82;100945.97;5113919;28;20092;-69
2021/11/12 14:58:19;;;;;;;36.70;23.75;;;;;;;10.14;74.98;100962.28;5113307;27;20463;-68
2021/11/12 15:00:46;;;;;;;34.33;21.02;;;;;;;10.07;75.22;100952.16;5112368;28;21053;-69
2021/11/12 15:03:12;;;;;;;35.38;22.73;;;;;;;9.88;75.61;100936.59;5112355;28;20035;-69
2021/11/12 15:05:38;;;;;;;37.30;24.75;;;;;;;9.89;76.60;100956.16;5113684;28;20096;-68
2021/11/12 15:08:27;;;;;;;35.05;22.65;;;;;;;9.75;77.27;100946.50;5111874;28;20522;-68
2021/11/12 15:10:52;;;;;;;33.00;22.42;;;;;;;9.69;77.11;100946.94;5112498;28;20031;-68
2021/11/12 15:13:18;;;;;;;33.40;22.35;;;;;;;9.60;77.86;100944.94;5113078;28;20081;-69
2021/11/12 15:15:44;;;;;;;33.28;23.50;;;;;;;9.43;78.53;100931.97;5111742;28;20031;-69
2021/11/12 15:18:12;;;;;;;35.83;24.02;;;;;;;9.38;78.97;100941.28;5111861;28;20368;-69
2021/11/12 15:20:39;;;;;;;41.85;25.70;;;;;;;9.34;80.14;100954.03;5113056;28;20038;-69
2021/11/12 15:33:24;;;;;;;44.00;25.40;;;;;;;8.74;82.66;100948.56;5113514;28;20069;-68
2021/11/12 15:35:50;;;;;;;45.33;25.83;;;;;;;8.76;83.22;100959.16;5111936;28;20036;-69
2021/11/12 15:38:25;;;;;;;41.40;28.20;;;;;;;8.72;84.04;100966.56;5112773;28;20028;-69
2021/11/12 15:41:13;;;;;;;43.97;29.42;;;;;;;8.69;85.17;100977.47;5112552;28;20041;-69
2021/11/12 15:43:59;;;;;;;46.83;29.30;;;;;;;8.59;85.34;100972.84;5112422;28;20027;-70
2021/11/12 15:46:27;;;;;;;42.53;27.75;;;;;;;8.54;85.89;100964.28;5112950;27;20066;-69
2021/11/12 15:48:54;;;;;;;47.90;30.85;;;;;;;8.39;86.18;100952.81;5112401;28;20376;-70
2021/11/12 16:12:14;;;;;;;52.88;31.33;;;;;;;7.74;88.87;100982.25;5109628;28;20045;-70
2021/11/12 16:14:53;;;;;;;50.90;31.00;;;;;;;7.69;88.77;100992.34;5109546;28;20047;-69
2021/11/12 16:22:33;;;;;;;46.40;28.67;;;;;;;7.28;89.70;100968.34;5112622;28;20034;-69
2021/11/12 16:27:36;;;;;;;50.72;31.20;;;;;;;7.27;90.71;100993.31;5112223;28;20059;-69
2021/11/12 16:30:05;;;;;;;55.95;30.98;;;;;;;7.16;91.18;100979.78;5109824;28;20076;-70
2021/11/12 16:35:09;;;;;;;48.85;29.27;;;;;;;6.95;91.73;100982.00;5112113;28;20035;-70
2021/11/12 16:37:35;;;;;;;46.15;30.15;;;;;;;6.95;91.54;101003.34;5110934;28;20039;-69
2021/11/12 16:45:10;;;;;;;60.08;34.33;;;;;;;6.82;93.32;101013.06;5111769;28;20037;-69
2021/11/12 16:47:55;;;;;;;58.35;34.85;;;;;;;6.71;93.67;101004.84;5111995;28;20031;-68
2021/11/12 16:50:34;;;;;;;73.15;42.08;;;;;;;6.62;94.43;100999.22;5112042;28;20023;-69
2021/11/12 17:03:27;;;;;;;92.28;54.22;;;;;;;6.52;96.89;101017.56;5111923;28;20028;-69
2021/11/12 17:06:17;;;;;;;92.97;53.45;;;;;;;6.45;97.26;101005.56;5110277;28;20032;-69
2021/11/12 17:11:21;;;;;;;90.65;54.55;;;;;;;6.37;96.66;101009.63;5112049;28;20089;-69